Time,TemperatureF,DewpointF,PressureIn,WindDirection,WindDirectionDegrees,WindSpeedMPH,WindSpeedGustMPH,Humidity,HourlyPrecipIn,Conditions,Clouds,dailyrainin,SoftwareType,DateUTC
2013-03-06 00:00:00,57.0,44.0,-100.00,North,-999,-999.0,-999.0,62,0.00,,,0.00,,2013-03-06 08:00:00,
2013-03-06 00:52:00,57.0,44.0,-100.00,North,-999,-999.0,-999.0,62,0.00,,,0.00,,2013-03-06 08:52:00,
2013-03-06 01:00:00,55.0,44.0,-100.00,North,-999,-999.0,-999.0,67,-99.99,,,0.00,,2013-03-06 09:00:00,
2013-03-06 01:52:00,55.0,44.0,-100.00,North,-999,-999.0,-999.0,67,-99.99,,,0.00,,2013-03-06 09:52:00,
2013-03-06 02:00:00,54.0,44.0,-100.00,North,-999,-999.0,-999.0,69,-99.99,,,0.00,,2013-03-06 10:00:00,
2013-03-06 02:52:00,54.0,44.0,-100.00,North,-999,-999.0,-999.0,69,-99.99,,,0.00,,2013-03-06 10:52:00,
2013-03-06 03:00:00,53.0,45.0,-100.00,North,-999,-999.0,-999.0,72,0.00,,,0.00,,2013-03-06 11:00:00,
2013-03-06 03:52:00,53.0,45.0,-100.00,North,-999,-999.0,-999.0,72,0.00,,,0.00,,2013-03-06 11:52:00,
2013-03-06 04:00:00,54.0,44.0,-100.00,North,-999,-999.0,-999.0,70,-99.99,,,0.00,,2013-03-06 12:00:00,
2013-03-06 04:52:00,54.0,44.0,-100.00,North,-999,-999.0,-999.0,70,-99.99,,,0.00,,2013-03-06 12:52:00,
2013-03-06 05:00:00,54.0,45.0,-100.00,North,-999,-999.0,-999.0,73,0.00,,,0.00,,2013-03-06 13:00:00,
2013-03-06 05:52:00,54.0,45.0,-100.00,North,-999,-999.0,-999.0,73,0.00,,,0.00,,2013-03-06 13:52:00,
2013-03-06 06:00:00,56.0,46.0,-100.00,North,-999,-999.0,-999.0,69,0.00,,,0.00,,2013-03-06 14:00:00,
2013-03-06 06:52:00,56.0,46.0,-100.00,North,-999,-999.0,-999.0,69,0.00,,,0.00,,2013-03-06 14:52:00,
2013-03-06 07:00:00,56.0,45.0,-100.00,North,-999,-999.0,-999.0,67,0.00,,,0.00,,2013-03-06 15:00:00,
2013-03-06 07:52:00,56.0,45.0,-100.00,North,-999,-999.0,-999.0,67,0.00,,,0.00,,2013-03-06 15:52:00,
2013-03-06 08:00:00,57.0,46.0,-100.00,North,-999,-999.0,-999.0,66,0.00,,,0.00,,2013-03-06 16:00:00,
2013-03-06 08:52:00,57.0,46.0,-100.00,North,-999,-999.0,-999.0,66,0.00,,,0.00,,2013-03-06 16:52:00,
2013-03-06 09:00:00,59.0,45.0,-100.00,North,-999,-999.0,-999.0,59,0.00,,,0.00,,2013-03-06 17:00:00,
2013-03-06 09:52:00,59.0,45.0,-100.00,North,-999,-999.0,-999.0,59,0.00,,,0.00,,2013-03-06 17:52:00,
2013-03-06 10:00:00,66.0,43.0,-100.00,North,-999,-999.0,-999.0,44,0.00,,,0.00,,2013-03-06 18:00:00,
2013-03-06 10:52:00,66.0,43.0,-100.00,North,-999,-999.0,-999.0,44,0.00,,,0.00,,2013-03-06 18:52:00,
2013-03-06 11:00:00,67.0,42.0,-100.00,North,-999,-999.0,-999.0,41,0.00,,,0.00,,2013-03-06 19:00:00,
2013-03-06 11:53:00,67.0,42.0,-100.00,North,-999,-999.0,-999.0,41,0.00,,,0.00,,2013-03-06 19:53:00,
2013-03-06 12:00:00,67.0,43.0,-100.00,North,-999,-999.0,-999.0,41,0.00,,,0.00,,2013-03-06 20:00:00,
2013-03-06 13:00:00,68.0,44.0,-100.00,North,-999,-999.0,-999.0,42,0.00,,,0.00,,2013-03-06 21:00:00,
2013-03-06 13:52:00,68.0,44.0,-100.00,North,-999,-999.0,-999.0,42,0.00,,,0.00,,2013-03-06 21:52:00,
2013-03-06 14:00:00,69.0,43.0,-100.00,North,-999,-999.0,-999.0,39,0.00,,,0.00,,2013-03-06 22:00:00,
2013-03-06 14:52:00,69.0,43.0,-100.00,North,-999,-999.0,-999.0,39,0.00,,,0.00,,2013-03-06 22:52:00,
2013-03-06 15:00:00,67.0,43.0,-100.00,North,-999,-999.0,-999.0,42,-99.99,,,0.00,,2013-03-06 23:00:00,
2013-03-06 16:00:00,66.0,47.0,-100.00,North,-999,-999.0,-999.0,51,0.00,,,0.00,,2013-03-07 00:00:00,
2013-03-06 16:52:00,66.0,47.0,-100.00,North,-999,-999.0,-999.0,51,0.00,,,0.00,,2013-03-07 00:52:00,
2013-03-06 17:00:00,65.0,47.0,-100.00,North,-999,-999.0,-999.0,53,0.00,,,0.00,,2013-03-07 01:00:00,
2013-03-06 17:52:00,65.0,47.0,-100.00,North,-999,-999.0,-999.0,53,0.00,,,0.00,,2013-03-07 01:52:00,
2013-03-06 18:00:00,64.0,48.0,-100.00,North,-999,-999.0,-999.0,56,0.00,,,0.00,,2013-03-07 02:00:00,
2013-03-06 19:00:00,62.0,47.0,-100.00,North,-999,-999.0,-999.0,57,0.00,,,0.00,,2013-03-07 03:00:00,
2013-03-06 19:52:00,62.0,47.0,-100.00,North,-999,-999.0,-999.0,57,0.00,,,0.00,,2013-03-07 03:52:00,
2013-03-06 20:00:00,61.0,47.0,-100.00,North,-999,-999.0,-999.0,60,-99.99,,,0.00,,2013-03-07 04:00:00,
2013-03-06 20:52:00,61.0,47.0,-100.00,North,-999,-999.0,-999.0,60,-99.99,,,0.00,,2013-03-07 04:52:00,
2013-03-06 21:00:00,61.0,49.0,-100.00,North,-999,-999.0,-999.0,65,0.00,,,0.00,,2013-03-07 05:00:00,
2013-03-06 21:52:00,61.0,49.0,-100.00,North,-999,-999.0,-999.0,65,0.00,,,0.00,,2013-03-07 05:52:00,
2013-03-06 22:00:00,60.0,48.0,-100.00,North,-999,-999.0,-999.0,64,-99.99,,,0.00,,2013-03-07 06:00:00,
2013-03-06 22:52:00,60.0,48.0,-100.00,North,-999,-999.0,-999.0,64,-99.99,,,0.00,,2013-03-07 06:52:00,
2013-03-06 23:00:00,59.0,47.0,-100.00,North,-999,-999.0,-999.0,65,-99.99,,,0.00,,2013-03-07 07:00:00,
2013-03-06 23:52:00,59.0,47.0,-100.00,North,-999,-999.0,-999.0,65,-99.99,,,0.00,,2013-03-07 07:52:00,